createdAt,value
2019-03-27T00:01:46.968Z,4.57
2019-03-27T00:04:16.462Z,5.43
2019-03-27T00:06:45.929Z,7.77
2019-03-27T00:09:15.423Z,5.93
2019-03-27T00:11:45.112Z,6.37
2019-03-27T00:14:14.754Z,3.93
2019-03-27T00:16:44.155Z,7.73
2019-03-27T00:19:13.672Z,6.33
2019-03-27T00:21:43.085Z,7.92
2019-03-27T00:24:12.581Z,10.57
2019-03-27T00:26:42.057Z,5.90
2019-03-27T00:29:11.494Z,7.83
2019-03-27T00:31:40.901Z,7.13
2019-03-27T00:34:10.345Z,5.40
2019-03-27T00:36:39.839Z,6.70
2019-03-27T00:39:09.322Z,8.37
2019-03-27T00:41:39.340Z,7.57
2019-03-27T00:44:09.036Z,10.00
2019-03-27T00:47:51.958Z,14.43
2019-03-27T00:50:22.528Z,22.57
2019-03-27T00:52:51.948Z,27.63
2019-03-27T00:55:22.297Z,13.80
2019-03-27T00:57:51.714Z,13.20
2019-03-27T01:00:45.877Z,14.87
2019-03-27T01:03:15.455Z,14.43
2019-03-27T01:05:45.934Z,18.27
2019-03-27T01:08:15.426Z,15.70
2019-03-27T01:10:44.942Z,18.15
2019-03-27T01:13:14.657Z,16.33
2019-03-27T01:15:44.307Z,18.67
2019-03-27T01:18:13.947Z,13.43
2019-03-27T01:20:43.533Z,7.47
2019-03-27T01:23:13.069Z,10.50
2019-03-27T01:25:42.606Z,9.97
2019-03-27T01:28:12.185Z,9.23
2019-03-27T01:30:41.893Z,11.23
2019-03-27T01:33:11.374Z,13.13
2019-03-27T01:35:40.903Z,10.07
2019-03-27T01:38:10.312Z,12.73
2019-03-27T01:40:39.816Z,10.30
2019-03-27T01:43:09.340Z,16.83
2019-03-27T01:45:52.137Z,27.50
2019-03-27T01:48:11.144Z,21.70
2019-03-27T01:50:40.615Z,17.07
2019-03-27T01:53:10.030Z,9.37
2019-03-27T01:55:39.532Z,12.23
2019-03-27T01:58:09.040Z,10.63
2019-03-27T02:00:38.538Z,14.60
2019-03-27T02:03:07.988Z,10.20
2019-03-27T02:05:39.001Z,10.43
2019-03-27T02:08:08.501Z,7.53
2019-03-27T02:10:38.170Z,13.47
2019-03-27T02:13:07.735Z,6.50
2019-03-27T02:15:37.292Z,6.43
2019-03-27T02:18:06.777Z,7.47
2019-03-27T02:20:36.230Z,7.10
2019-03-27T02:23:07.422Z,5.60
2019-03-27T02:25:36.957Z,9.27
2019-03-27T02:28:06.449Z,11.20
2019-03-27T02:30:39.590Z,9.60
2019-03-27T02:33:09.146Z,9.70
2019-03-27T02:35:39.646Z,11.80
2019-03-27T02:38:09.112Z,8.57
2019-03-27T02:40:38.543Z,9.40
2019-03-27T02:43:09.011Z,8.80
2019-03-27T02:45:38.441Z,9.73
2019-03-27T02:48:07.848Z,9.70
2019-03-27T02:50:37.341Z,9.60
2019-03-27T02:53:06.885Z,12.30
2019-03-27T02:55:36.326Z,11.87
2019-03-27T02:58:05.752Z,13.27
2019-03-27T03:00:36.377Z,11.67
2019-03-27T03:03:05.860Z,16.97
2019-03-27T03:05:35.407Z,13.43
2019-03-27T03:08:04.964Z,14.53
2019-03-27T03:10:34.648Z,16.47
2019-03-27T03:13:04.394Z,12.37
2019-03-27T03:15:33.829Z,13.83
2019-03-27T03:18:03.382Z,13.43
2019-03-27T03:20:33.896Z,13.33
2019-03-27T03:23:03.364Z,17.90
2019-03-27T03:25:32.860Z,22.37
2019-03-27T03:28:02.345Z,19.83
2019-03-27T03:30:31.876Z,19.13
2019-03-27T03:33:01.295Z,24.00
2019-03-27T03:35:30.768Z,28.97
2019-03-27T03:38:01.170Z,25.67
2019-03-27T03:40:30.685Z,22.90
2019-03-27T03:43:00.257Z,18.53
2019-03-27T03:45:30.069Z,15.37
2019-03-27T03:47:59.745Z,20.23
2019-03-27T03:50:42.847Z,21.13
2019-03-27T03:53:14.041Z,20.43
2019-03-27T03:55:44.828Z,25.23
2019-03-27T03:58:16.613Z,20.47
2019-03-27T04:00:46.880Z,20.87
2019-03-27T04:03:17.553Z,21.47
2019-03-27T04:05:47.087Z,22.87
2019-03-27T04:08:16.581Z,28.17
2019-03-27T04:10:46.052Z,23.63
2019-03-27T04:13:15.661Z,19.87
2019-03-27T04:15:45.231Z,27.53
2019-03-27T04:18:14.842Z,20.80
2019-03-27T04:20:44.359Z,61.93
2019-03-27T04:23:13.960Z,45.33
2019-03-27T04:26:08.379Z,26.07
2019-03-27T04:28:14.566Z,19.73
2019-03-27T04:30:44.122Z,17.23
2019-03-27T04:33:13.670Z,19.30
2019-03-27T04:35:44.039Z,19.42
2019-03-27T04:38:13.852Z,23.77
2019-03-27T04:40:43.337Z,31.07
2019-03-27T04:43:12.832Z,37.83
2019-03-27T04:45:42.303Z,39.65
2019-03-27T04:48:11.881Z,59.17
2019-03-27T04:50:41.296Z,37.20
2019-03-27T04:53:10.824Z,33.95
2019-03-27T04:55:40.316Z,39.77
2019-03-27T04:58:10.907Z,38.73
2019-03-27T05:00:40.480Z,35.63
2019-03-27T05:03:10.065Z,38.27
2019-03-27T05:05:39.632Z,35.33
2019-03-27T05:08:09.166Z,31.90
2019-03-27T05:10:38.669Z,34.83
2019-03-27T05:13:08.284Z,35.97
2019-03-27T05:15:37.803Z,32.83
2019-03-27T05:18:07.418Z,44.23
2019-03-27T05:20:36.915Z,39.40
2019-03-27T05:23:06.455Z,42.47
2019-03-27T05:25:35.992Z,43.60
2019-03-27T05:28:05.514Z,39.37
2019-03-27T05:30:36.096Z,37.63
2019-03-27T05:33:05.716Z,39.07
2019-03-27T05:35:35.341Z,42.37
2019-03-27T05:38:04.984Z,42.57
2019-03-27T05:40:36.377Z,41.97
2019-03-27T05:43:05.948Z,43.10
2019-03-27T05:45:35.443Z,44.93
2019-03-27T05:48:05.222Z,53.47
2019-03-27T05:50:34.664Z,63.53
2019-03-27T05:53:04.188Z,67.83
2019-03-27T05:55:33.679Z,60.43
2019-03-27T05:58:03.138Z,58.43
2019-03-27T06:00:33.518Z,51.73
2019-03-27T06:03:04.124Z,51.10
2019-03-27T06:05:33.557Z,48.20
2019-03-27T06:08:03.101Z,61.23
2019-03-27T06:10:32.592Z,51.77
2019-03-27T06:13:02.094Z,46.87
2019-03-27T06:15:31.537Z,62.70
2019-03-27T06:18:12.453Z,66.13
2019-03-27T06:20:32.472Z,61.70
2019-03-27T06:23:03.421Z,50.57
2019-03-27T06:25:33.008Z,56.30
2019-03-27T06:28:02.573Z,48.50
2019-03-27T06:30:31.995Z,50.90
2019-03-27T06:33:01.453Z,48.10
2019-03-27T06:35:31.078Z,54.27
2019-03-27T06:38:01.099Z,53.10
2019-03-27T06:40:30.600Z,51.23
2019-03-27T06:43:00.212Z,44.23
2019-03-27T06:45:30.771Z,44.23
2019-03-27T06:48:00.399Z,44.30
2019-03-27T06:50:29.941Z,35.43
2019-03-27T06:52:59.473Z,32.50
2019-03-27T06:55:29.137Z,36.20
2019-03-27T06:57:58.769Z,27.90
2019-03-27T07:00:36.645Z,27.37
2019-03-27T07:03:07.609Z,29.27
2019-03-27T07:05:37.047Z,23.53
2019-03-27T07:08:06.688Z,26.30
2019-03-27T07:10:36.192Z,29.53
2019-03-27T07:13:05.634Z,28.40
2019-03-27T07:15:35.875Z,30.03
2019-03-27T07:18:05.513Z,26.33
2019-03-27T07:20:35.117Z,28.17
2019-03-27T07:23:04.610Z,24.37
2019-03-27T07:25:34.048Z,21.87
2019-03-27T07:28:03.593Z,22.90
2019-03-27T07:30:34.382Z,18.77
2019-03-27T07:33:03.902Z,17.80
2019-03-27T07:35:33.510Z,18.47
2019-03-27T07:38:04.017Z,19.40
2019-03-27T07:40:35.037Z,21.70
2019-03-27T07:43:04.666Z,19.90
2019-03-27T07:45:34.223Z,20.57
2019-03-27T07:48:03.751Z,18.50
2019-03-27T07:50:33.309Z,17.37
2019-03-27T07:53:04.448Z,16.20
2019-03-27T07:55:33.955Z,17.40
2019-03-27T07:58:03.378Z,13.87
2019-03-27T08:00:33.938Z,13.80
2019-03-27T08:03:03.413Z,13.10
2019-03-27T08:05:32.909Z,12.13
2019-03-27T08:08:02.411Z,13.87
2019-03-27T08:10:31.906Z,13.53
2019-03-27T08:13:02.449Z,12.90
2019-03-27T08:15:32.142Z,10.43
2019-03-27T08:18:01.536Z,8.73
2019-03-27T08:20:31.203Z,9.40
2019-03-27T08:23:01.521Z,13.23
2019-03-27T18:19:22.627Z,14.80
2019-03-27T18:21:52.234Z,13.73
2019-03-27T18:24:21.711Z,13.80
2019-03-27T18:26:51.196Z,13.60
2019-03-27T18:29:20.778Z,18.47
2019-03-27T18:31:50.324Z,12.87
2019-03-27T18:34:19.781Z,13.73
2019-03-27T18:36:49.399Z,12.47
2019-03-27T18:39:20.080Z,14.63
2019-03-27T18:41:51.747Z,12.70
2019-03-27T18:44:21.431Z,11.73
2019-03-27T18:46:50.924Z,11.33
2019-03-27T18:49:20.628Z,12.70
2019-03-27T18:51:50.121Z,15.43
2019-03-27T18:54:19.584Z,16.57
2019-03-27T18:56:49.079Z,17.87
2019-03-27T18:59:18.688Z,18.07
2019-03-27T19:01:48.121Z,17.67
2019-03-27T19:04:17.679Z,15.23
2019-03-27T19:06:47.189Z,17.93
2019-03-27T19:09:16.677Z,15.60
2019-03-27T19:11:46.385Z,15.43
2019-03-27T19:14:16.862Z,15.60
2019-03-27T19:16:47.303Z,19.37
2019-03-27T19:19:16.886Z,19.23
2019-03-27T19:21:46.506Z,15.27
2019-03-27T19:24:17.052Z,19.90
2019-03-27T19:26:46.894Z,16.17
2019-03-27T19:29:16.480Z,18.83
2019-03-27T19:31:45.919Z,17.77
2019-03-27T19:34:15.543Z,18.40
2019-03-27T19:36:45.933Z,18.17
2019-03-27T19:39:15.637Z,20.53
2019-03-27T19:41:45.274Z,20.03
2019-03-27T19:44:14.731Z,19.73
2019-03-27T19:46:45.291Z,25.63
2019-03-27T19:49:16.820Z,23.53
2019-03-27T19:51:46.448Z,23.73
2019-03-27T19:54:26.531Z,20.23
2019-03-27T19:56:47.350Z,19.30
2019-03-27T19:59:18.238Z,21.33
2019-03-27T20:01:50.615Z,21.50
2019-03-27T20:04:20.564Z,23.40
2019-03-27T20:06:50.017Z,20.40
2019-03-27T20:09:20.038Z,22.17
2019-03-27T20:11:49.666Z,19.20
2019-03-27T20:14:19.330Z,23.87
2019-03-27T20:16:48.817Z,23.63
2019-03-27T20:19:18.372Z,23.57
2019-03-27T20:21:47.875Z,26.90
2019-03-27T20:24:17.420Z,25.37
2019-03-27T20:26:47.221Z,24.10
2019-03-27T20:29:16.645Z,25.13
2019-03-27T20:31:46.259Z,27.63
2019-03-27T20:34:15.734Z,24.23
2019-03-27T20:36:45.200Z,26.90
2019-03-27T20:39:14.686Z,23.63
2019-03-27T20:41:44.346Z,26.33
2019-03-27T20:44:13.900Z,21.37
2019-03-27T20:46:43.347Z,23.03
2019-03-27T20:49:12.784Z,20.57
2019-03-27T20:51:42.229Z,21.87
2019-03-27T20:54:11.638Z,21.77
2019-03-27T20:56:41.141Z,22.37
2019-03-27T20:59:13.802Z,11.07
2019-03-27T21:01:43.423Z,19.27
2019-03-27T21:04:12.871Z,15.40
2019-03-27T21:06:42.557Z,13.37
2019-03-27T21:09:12.113Z,18.20
2019-03-27T21:11:41.916Z,14.90
2019-03-27T21:14:11.355Z,18.53
2019-03-27T21:16:40.839Z,23.23
2019-03-27T21:19:12.532Z,22.30
2019-03-27T21:21:42.487Z,19.87
2019-03-27T21:24:11.994Z,25.40
2019-03-27T21:26:41.611Z,21.40
2019-03-27T21:29:11.295Z,21.17
2019-03-27T21:31:40.850Z,19.07
2019-03-27T21:34:10.336Z,20.53
2019-03-27T21:36:39.848Z,16.33
2019-03-27T21:39:10.139Z,14.83
2019-03-27T21:41:39.653Z,15.87
2019-03-27T21:44:09.069Z,13.57
2019-03-27T21:46:38.500Z,16.93
2019-03-27T21:49:08.009Z,19.50
2019-03-27T21:51:37.445Z,16.37
2019-03-27T21:54:06.862Z,11.73
2019-03-27T21:56:36.449Z,18.73
2019-03-27T21:59:06.007Z,19.43
2019-03-27T22:01:35.475Z,19.80
2019-03-27T22:04:05.024Z,18.07
2019-03-27T22:06:34.525Z,18.27
2019-03-27T22:09:05.450Z,17.67
2019-03-27T22:11:35.425Z,21.70
2019-03-27T22:14:05.085Z,18.33
2019-03-27T22:16:34.607Z,22.30
2019-03-27T22:19:05.312Z,20.30
2019-03-27T22:21:34.867Z,23.87
2019-03-27T22:24:04.455Z,18.60
2019-03-27T22:26:33.904Z,21.50
2019-03-27T22:29:06.357Z,19.50
2019-03-27T22:31:35.900Z,22.20
2019-03-27T22:34:05.507Z,19.13
2019-03-27T22:36:34.925Z,22.10
2019-03-27T22:39:07.261Z,23.97
2019-03-27T22:41:36.870Z,20.23
2019-03-27T22:44:07.327Z,22.80
2019-03-27T22:46:36.833Z,21.53
2019-03-27T22:49:07.279Z,18.23
2019-03-27T22:51:36.781Z,20.23
2019-03-27T22:54:06.245Z,18.30
2019-03-27T22:56:35.683Z,22.63
2019-03-27T22:59:05.280Z,23.43
2019-03-27T23:01:40.708Z,21.77
2019-03-27T23:04:10.129Z,23.00
2019-03-27T23:06:39.887Z,24.47
2019-03-27T23:09:10.004Z,18.77
2019-03-27T23:11:39.598Z,21.43
2019-03-27T23:14:10.814Z,19.87
2019-03-27T23:16:40.295Z,21.23
2019-03-27T23:19:10.888Z,22.93
2019-03-27T23:21:40.741Z,19.67
2019-03-27T23:24:10.363Z,13.07
2019-03-27T23:26:39.817Z,17.63
2019-03-27T23:29:09.287Z,24.30
2019-03-27T23:31:38.783Z,22.63
2019-03-27T23:34:08.277Z,23.53
2019-03-27T23:36:37.772Z,21.23
2019-03-27T23:39:08.662Z,21.83
2019-03-27T23:41:38.080Z,22.20
2019-03-27T23:44:07.750Z,24.80
2019-03-27T23:46:37.244Z,25.83
2019-03-27T23:49:06.740Z,22.00
2019-03-27T23:51:36.157Z,24.57
2019-03-27T23:54:05.699Z,25.33
2019-03-27T23:56:35.140Z,22.90
2019-03-27T23:59:04.816Z,22.87
